Maunaloa, HI (96770)

4:32 PM HST on July 31, 2015 (GMT -1000)
Molokai | | Change Station
CLOSE
Current Station
Airport
Location: Molokai,
Elevation: 449 ft
Nearby Weather Stations

Elev 449 ft 21.15 °N, 157.10 °W | Updated 38 minutes ago

Scattered Clouds
Scattered Clouds
84 °F
Feels Like 89 °F
N
24
Wind Variable Wind from NE
Gusts 34 mph

Today
High -- | Low -- °F
--% Chance of Precip.
Yesterday
High -- | Low -- °F
Precip. -- in
6:02 AM 7:08 PM
Waxing Gibbous, 99% visible
Pressure 29.95 in
Visibility 10.0 miles
Clouds Scattered Clouds 3000 ft
Heat Index 89 °F
Dew Point 71 °F
Humidity 65%
Rainfall 0.00 in
Snow Depth Not available.
UV 5 out of 12
Pollen Not available.
Air Quality Not available.
Flu Activity Not available.
METAR PHMK 010154Z 05021G30KT 10SM SCT030 29/22 A2994 RMK AO2 PK WND 05030/0147 SLP140 T02890217

More Conditions Fewer Conditions

Pressure 29.95 in
Visibility 10.0 miles
Clouds Scattered Clouds 3000 ft
Heat Index 89 °F
Dew Point 71 °F
Humidity 65%
Rainfall 0.00 in
Snow Depth Not available.
UV 5 out of 12
Pollen Not available.
Air Quality Not available.
Flu Activity Not available.
METAR PHMK 010154Z 05021G30KT 10SM SCT030 29/22 A2994 RMK AO2 PK WND 05030/0147 SLP140 T02890217

More Conditions Fewer Conditions

10-Day Weather Forecast

×

Almanac

Astronomy

Jul. 31, 2015 Rise Set
Actual Time
Civil Twilight
Nautical Twilight
Astronomical Twilight
Moon
Length of Visible Light
Length of Day
Tomorrow will be .
, % of the Moon is Illuminated

Today's Extremes

State Highs State Lows

Community

WunderPhotos

Upload Photos

1,842,829 photos uploaded!

WunderBlogs® & News

Nearby

Air Quality

  Air Quality AQ Index Pollutant
Not available.

Snow Depth

Station Depth Elevation

Earthquake Activity

City Distance Mag. Time & Date
Minimum magnitude displayed is 2.5.

Coastal Water Temperatures

Place Temperature

Stations

Nearby Weather Stations

Station Location Temp. Windchill Dew Point Humidity Wind Precip. Elev Updated Type